Time;durP1;ratioP1;P1;durP2;ratioP2;P2;SDS_P1;SDS_P2;PMS_P1;PMS_P2;Temp;Humidity;BMP_temperature;BMP_pressure;BME280_temperature;BME280_humidity;BME280_pressure;Samples;Min_cycle;Max_cycle;Signal;HPM_P1;HPM_P2
2023/04/09 00:01:16;;;;;;;59.07;30.70;;;;;;;8.01;100.00;149474.13;5074478;28;20099;-72
2023/04/09 00:03:41;;;;;;;64.93;32.50;;;;;;;7.98;100.00;149465.06;5079294;28;20020;-72
2023/04/09 00:06:07;;;;;;;62.57;31.67;;;;;;;7.94;100.00;149457.31;5077627;28;20040;-72
2023/04/09 00:08:32;;;;;;;63.10;32.47;;;;;;;7.91;100.00;149448.28;5076464;28;20043;-71
2023/04/09 00:10:58;;;;;;;59.77;29.90;;;;;;;7.98;100.00;149466.34;5081382;28;20028;-72
2023/04/09 00:13:24;;;;;;;64.20;30.77;;;;;;;7.99;100.00;149468.94;5088421;28;20032;-71
2023/04/09 00:15:50;;;;;;;60.53;31.00;;;;;;;7.96;100.00;149459.88;5075548;28;20028;-72
2023/04/09 00:18:15;;;;;;;63.53;31.37;;;;;;;7.96;100.00;149461.19;5079891;28;20024;-72
2023/04/09 00:20:42;;;;;;;62.27;29.67;;;;;;;7.98;100.00;149466.34;5082118;28;20054;-72
2023/04/09 00:23:07;;;;;;;54.70;28.07;;;;;;;8.01;100.00;149472.84;5074472;28;20074;-72
2023/04/09 00:25:33;;;;;;;59.37;30.43;;;;;;;7.97;100.00;149463.75;5074121;28;20484;-72
2023/04/09 00:27:59;;;;;;;59.50;29.97;;;;;;;7.99;100.00;149468.94;5088069;28;20027;-72
2023/04/09 00:30:24;;;;;;;56.57;27.87;;;;;;;8.01;100.00;149474.13;5094219;28;20475;-72
2023/04/09 00:32:50;;;;;;;57.67;27.87;;;;;;;7.94;100.00;149456.00;5083699;28;20055;-72
2023/04/09 00:35:16;;;;;;;56.67;28.53;;;;;;;7.97;100.00;149463.75;5075204;28;20084;-72
2023/04/09 00:37:42;;;;;;;56.80;27.13;;;;;;;7.92;100.00;149450.84;5092708;28;20020;-72
2023/04/09 00:40:08;;;;;;;55.13;26.57;;;;;;;7.87;100.00;149437.91;5094280;28;20110;-72
2023/04/09 00:42:34;;;;;;;62.70;28.53;;;;;;;7.88;100.00;149440.53;5093815;28;20049;-71
2023/04/09 00:45:00;;;;;;;51.33;26.67;;;;;;;7.85;100.00;149432.75;5094011;28;20107;-72
2023/04/09 00:47:27;;;;;;;50.20;24.73;;;;;;;7.91;100.00;149448.28;5094373;28;20074;-72
2023/04/09 00:49:53;;;;;;;54.17;24.60;;;;;;;7.90;100.00;149445.69;5088980;28;20032;-72
2023/04/09 00:52:18;;;;;;;57.30;27.03;;;;;;;7.85;100.00;149432.75;5083699;28;20024;-72
2023/04/09 00:54:44;;;;;;;51.80;25.17;;;;;;;7.82;100.00;149426.28;5073647;28;20104;-72
2023/04/09 00:57:11;;;;;;;52.33;24.17;;;;;;;7.83;100.00;149427.59;5090368;28;20384;-72
2023/04/09 00:59:37;;;;;;;54.53;26.63;;;;;;;7.82;100.00;149425.00;5093801;28;20024;-71
2023/04/09 01:02:02;;;;;;;54.83;27.23;;;;;;;7.73;100.00;149403.03;5090110;28;20135;-67
2023/04/09 01:04:28;;;;;;;55.77;27.83;;;;;;;7.68;100.00;149388.84;5073574;28;20146;-68
2023/04/09 01:07:13;;;;;;;59.80;28.50;;;;;;;7.59;100.00;149368.16;5077908;28;20036;-67
2023/04/09 01:09:53;;;;;;;57.27;28.30;;;;;;;7.58;100.00;149364.28;5077570;28;20020;-67
2023/04/09 01:13:06;;;;;;;55.43;27.13;;;;;;;7.63;100.00;149378.53;5072176;28;20042;-67
2023/04/09 01:15:37;;;;;;;54.30;26.47;;;;;;;7.68;100.00;149388.84;5058957;28;20571;-68
2023/04/09 01:18:38;;;;;;;56.92;27.52;;;;;;;7.66;100.00;149384.97;5070598;28;20086;-68
2023/04/09 01:21:08;;;;;;;53.58;26.05;;;;;;;7.63;100.00;149377.19;5034024;28;20040;-68
2023/04/09 01:24:20;;;;;;;61.33;28.00;;;;;;;7.67;100.00;149387.56;5069621;28;20155;-68
2023/04/09 01:27:04;;;;;;;53.38;26.45;;;;;;;7.65;100.00;149382.38;5058492;28;20047;-67
2023/04/09 01:29:34;;;;;;;56.37;26.67;;;;;;;7.58;100.00;149364.28;5065227;28;20039;-68
2023/04/09 01:32:02;;;;;;;61.90;27.93;;;;;;;7.47;100.00;149335.84;5070672;28;20118;-68
2023/04/09 01:34:28;;;;;;;59.13;27.77;;;;;;;7.33;100.00;149301.00;5069373;28;20500;-68
2023/04/09 01:36:58;;;;;;;53.53;24.47;;;;;;;7.25;100.00;149281.59;5070396;28;20050;-68
2023/04/09 01:39:25;;;;;;;59.20;26.53;;;;;;;7.15;100.00;149254.47;5070320;28;20044;-67
2023/04/09 01:41:52;;;;;;;55.70;25.07;;;;;;;6.96;100.00;149208.00;5070875;28;20070;-67
2023/04/09 01:44:19;;;;;;;59.13;25.17;;;;;;;6.82;100.00;149170.56;5055314;28;20045;-67
2023/04/09 01:46:47;;;;;;;50.73;24.23;;;;;;;6.65;100.00;149127.94;5050680;28;20029;-67
2023/04/09 01:49:14;;;;;;;58.73;26.03;;;;;;;6.45;100.00;149078.94;5050549;28;20481;-69
2023/04/09 01:51:40;;;;;;;62.73;27.10;;;;;;;6.24;100.00;149023.44;5050842;28;20048;-67
2023/04/09 01:54:05;;;;;;;64.47;27.70;;;;;;;6.10;100.00;148988.59;5049756;28;20094;-68
2023/04/09 01:56:44;;;;;;;64.33;28.00;;;;;;;5.86;100.00;148927.91;5041685;28;20017;-67
2023/04/09 01:59:10;;;;;;;62.40;27.20;;;;;;;5.79;100.00;148911.13;5053168;28;20025;-67
2023/04/09 02:01:58;;;;;;;70.43;29.10;;;;;;;5.74;100.00;148898.25;5051913;28;20546;-68
2023/04/09 02:04:38;;;;;;;64.67;28.40;;;;;;;5.64;100.00;148872.44;5032922;28;20394;-68
2023/04/09 02:07:17;;;;;;;70.93;28.27;;;;;;;5.53;100.00;148844.06;5032804;28;20026;-68
2023/04/09 02:09:46;;;;;;;70.63;28.50;;;;;;;5.37;100.00;148802.81;5033270;28;20033;-68
2023/04/09 02:12:15;;;;;;;72.10;29.50;;;;;;;5.27;100.00;148779.59;5040100;28;20075;-68
2023/04/09 02:14:43;;;;;;;79.33;31.50;;;;;;;5.20;100.00;148761.53;5037172;28;20428;-68
2023/04/09 02:17:08;;;;;;;86.33;32.83;;;;;;;5.08;100.00;148730.59;5032620;28;20045;-68
2023/04/09 02:19:43;;;;;;;84.37;31.93;;;;;;;4.95;100.00;148698.38;5036158;28;20100;-68
2023/04/09 02:22:09;;;;;;;91.17;33.47;;;;;;;4.82;100.00;148663.59;5051721;28;20029;-68
2023/04/09 02:24:35;;;;;;;99.97;34.87;;;;;;;4.95;100.00;148698.38;5047789;28;20057;-68
2023/04/09 02:27:01;;;;;;;96.40;35.77;;;;;;;4.95;100.00;148697.09;5034195;28;20095;-68
2023/04/09 02:29:27;;;;;;;91.70;33.70;;;;;;;4.91;100.00;148686.78;5033047;28;20045;-68
2023/04/09 02:31:52;;;;;;;94.03;33.60;;;;;;;4.86;100.00;148675.22;5038657;28;20474;-69
2023/04/09 02:34:19;;;;;;;99.87;33.13;;;;;;;4.85;100.00;148672.63;5056137;28;20104;-68
2023/04/09 02:36:44;;;;;;;106.93;35.07;;;;;;;4.86;100.00;148675.22;5040336;28;20025;-68
2023/04/09 02:39:10;;;;;;;107.50;36.93;;;;;;;4.88;100.00;148679.06;5036405;28;20017;-68
2023/04/09 02:41:35;;;;;;;99.93;34.87;;;;;;;4.83;100.00;148666.16;5037566;28;20064;-68
2023/04/09 02:44:00;;;;;;;100.03;34.73;;;;;;;4.88;100.00;148680.34;5062087;28;20047;-69
2023/04/09 02:46:26;;;;;;;97.20;34.77;;;;;;;4.86;100.00;148673.94;5075825;28;20025;-69
2023/04/09 02:48:51;;;;;;;104.60;35.37;;;;;;;4.80;100.00;148659.72;5079840;28;20025;-68
2023/04/09 02:51:17;;;;;;;103.27;36.77;;;;;;;4.75;100.00;148646.84;5091866;28;20024;-68
2023/04/09 02:53:44;;;;;;;103.70;35.90;;;;;;;4.76;100.00;148649.44;5076233;28;20036;-69
2023/04/09 02:56:09;;;;;;;105.57;37.33;;;;;;;4.84;100.00;148668.72;5085247;28;20021;-68
2023/04/09 02:58:35;;;;;;;109.47;36.90;;;;;;;4.79;100.00;148655.88;5076128;28;20035;-69
2023/04/09 03:01:00;;;;;;;111.97;37.03;;;;;;;4.69;100.00;148632.66;5076520;28;20561;-68
2023/04/09 03:03:26;;;;;;;110.47;37.20;;;;;;;4.60;100.00;148609.50;5075905;28;20404;-68
2023/04/09 03:05:51;;;;;;;120.77;38.80;;;;;;;4.55;100.00;148596.59;5087848;28;20035;-68
2023/04/09 03:08:17;;;;;;;117.00;38.47;;;;;;;4.52;100.00;148587.59;5096232;28;20459;-68
2023/04/09 03:10:42;;;;;;;122.23;39.77;;;;;;;4.54;100.00;148592.72;5091405;28;20027;-68
2023/04/09 03:13:08;;;;;;;125.77;39.13;;;;;;;4.43;100.00;148565.66;5076182;28;20107;-69
2023/04/09 03:15:33;;;;;;;131.53;38.87;;;;;;;4.34;100.00;148542.47;5075618;28;20025;-68
2023/04/09 03:17:59;;;;;;;129.37;39.63;;;;;;;4.31;100.00;148534.75;5092116;28;20028;-68
2023/04/09 03:20:24;;;;;;;127.60;40.57;;;;;;;4.38;100.00;148554.09;5076298;28;20028;-68
2023/04/09 03:22:50;;;;;;;119.77;39.20;;;;;;;4.40;100.00;148557.94;5075766;28;20044;-68
2023/04/09 03:25:18;;;;;;;122.50;37.77;;;;;;;4.25;100.00;148520.59;5078136;28;20024;-68
2023/04/09 03:27:44;;;;;;;125.80;38.53;;;;;;;4.24;100.00;148518.03;5095521;28;20074;-68
2023/04/09 03:30:10;;;;;;;139.10;41.47;;;;;;;4.24;100.00;148518.03;5093745;28;20016;-69
2023/04/09 03:32:35;;;;;;;126.90;39.37;;;;;;;4.33;100.00;148541.19;5092905;28;20046;-68
2023/04/09 03:35:01;;;;;;;126.37;39.53;;;;;;;4.41;100.00;148560.53;5093606;28;20099;-68
2023/04/09 03:37:26;;;;;;;123.03;36.80;;;;;;;4.45;100.00;148569.53;5075088;28;20440;-69
2023/04/09 03:39:52;;;;;;;102.50;35.50;;;;;;;4.51;100.00;148586.28;5075486;28;20017;-69
2023/04/09 03:42:17;;;;;;;101.20;34.27;;;;;;;4.51;100.00;148586.28;5091347;28;20177;-68
2023/04/09 03:44:43;;;;;;;106.80;34.60;;;;;;;4.51;100.00;148585.00;5074656;28;20049;-68
2023/04/09 03:47:08;;;;;;;90.30;29.90;;;;;;;4.49;100.00;148581.16;5087733;28;20585;-68
2023/04/09 03:49:35;;;;;;;100.07;34.23;;;;;;;4.50;100.00;148582.44;5083946;28;20036;-68
2023/04/09 03:52:00;;;;;;;89.80;32.23;;;;;;;4.46;100.00;148572.09;5079590;28;20036;-68
2023/04/09 03:54:29;;;;;;;84.93;30.80;;;;;;;4.49;100.00;148581.16;5074611;28;20020;-69
2023/04/09 03:56:56;;;;;;;94.63;32.90;;;;;;;4.41;100.00;148560.53;5078457;28;20479;-68
2023/04/09 03:59:22;;;;;;;97.90;35.07;;;;;;;4.28;100.00;148528.31;5086194;28;20036;-68
2023/04/09 04:01:47;;;;;;;105.43;34.83;;;;;;;4.21;100.00;148508.97;5074830;28;20365;-67
2023/04/09 04:04:13;;;;;;;111.13;35.37;;;;;;;4.10;100.00;148481.94;5087152;28;20031;-68
2023/04/09 04:06:38;;;;;;;117.67;38.30;;;;;;;4.00;100.00;148457.50;5075464;28;20035;-68
2023/04/09 04:09:04;;;;;;;126.27;37.37;;;;;;;4.00;100.00;148457.50;5089941;28;20472;-68
2023/04/09 04:11:30;;;;;;;110.83;34.80;;;;;;;4.13;100.00;148488.41;5089069;28;20094;-68
2023/04/09 04:13:55;;;;;;;113.13;36.37;;;;;;;4.17;100.00;148499.97;5092292;28;20024;-68
2023/04/09 04:16:21;;;;;;;117.77;38.37;;;;;;;4.10;100.00;148481.94;5083794;28;20020;-67
2023/04/09 04:18:47;;;;;;;123.83;37.00;;;;;;;4.02;100.00;148462.66;5073492;28;20028;-67
2023/04/09 04:21:16;;;;;;;121.77;38.27;;;;;;;4.02;100.00;148462.66;5077788;28;20051;-67
2023/04/09 04:23:42;;;;;;;118.33;36.57;;;;;;;4.01;100.00;148460.06;5075167;28;20031;-68
2023/04/09 04:26:11;;;;;;;109.73;34.40;;;;;;;4.01;100.00;148458.78;5074963;28;20033;-68
2023/04/09 04:28:37;;;;;;;109.80;35.63;;;;;;;4.03;100.00;148465.22;5073891;28;20081;-67
2023/04/09 04:31:12;;;;;;;105.57;33.73;;;;;;;4.05;100.00;148470.34;5078905;28;20089;-68
2023/04/09 04:33:39;;;;;;;106.40;34.70;;;;;;;4.03;100.00;148465.22;5078487;28;20470;-67
2023/04/09 04:36:10;;;;;;;113.97;36.90;;;;;;;3.94;100.00;148442.03;5089344;28;20073;-67
2023/04/09 04:38:36;;;;;;;118.38;38.13;;;;;;;3.86;100.00;148421.41;5080952;28;20028;-67
2023/04/09 04:41:02;;;;;;;119.13;36.33;;;;;;;3.91;100.00;148434.31;5073549;28;20073;-68
2023/04/09 04:43:27;;;;;;;112.40;35.00;;;;;;;3.99;100.00;148453.59;5081138;28;20044;-68
2023/04/09 04:45:53;;;;;;;101.77;34.10;;;;;;;4.04;100.00;148466.50;5082308;28;20516;-67
2023/04/09 04:48:19;;;;;;;113.50;34.37;;;;;;;4.13;100.00;148489.69;5073973;28;20029;-67
2023/04/09 04:50:44;;;;;;;94.53;33.07;;;;;;;4.13;100.00;148488.41;5073882;28;20063;-68
2023/04/09 04:53:10;;;;;;;101.83;34.70;;;;;;;4.16;100.00;148497.41;5073382;28;20031;-68
2023/04/09 04:55:36;;;;;;;95.00;33.23;;;;;;;4.11;100.00;148485.78;5073368;28;20555;-68
2023/04/09 04:58:01;;;;;;;97.47;29.60;;;;;;;4.11;100.00;148484.50;5073769;28;20028;-67
2023/04/09 05:00:27;;;;;;;83.20;29.87;;;;;;;4.27;100.00;148524.47;5076996;28;20078;-67
2023/04/09 05:02:52;;;;;;;100.33;31.43;;;;;;;4.41;100.00;148560.53;5082424;28;20031;-67
2023/04/09 05:05:18;;;;;;;90.23;30.53;;;;;;;4.50;100.00;148583.72;5073414;28;20120;-67
2023/04/09 05:07:43;;;;;;;109.23;34.47;;;;;;;4.56;100.00;148599.16;5073460;28;20082;-67
2023/04/09 05:10:09;;;;;;;91.30;28.53;;;;;;;4.69;100.00;148632.66;5076232;28;20077;-67
2023/04/09 05:12:35;;;;;;;89.47;30.10;;;;;;;4.80;100.00;148658.44;5086401;28;20484;-67
2023/04/09 05:15:00;;;;;;;80.53;24.70;;;;;;;4.87;100.00;148676.50;5073268;28;20461;-66
2023/04/09 05:17:26;;;;;;;109.80;32.33;;;;;;;4.91;100.00;148688.06;5089090;28;20035;-67
2023/04/09 05:19:52;;;;;;;82.23;28.67;;;;;;;4.94;100.00;148694.50;5073137;28;20028;-67
2023/04/09 05:22:18;;;;;;;92.37;27.73;;;;;;;4.95;100.00;148698.38;5088818;28;20025;-68
2023/04/09 05:24:43;;;;;;;87.83;29.13;;;;;;;4.97;100.00;148702.28;5076763;28;20024;-67
2023/04/09 05:27:09;;;;;;;72.73;25.17;;;;;;;4.98;100.00;148704.84;5092518;28;20062;-68
2023/04/09 05:29:34;;;;;;;92.27;28.73;;;;;;;4.99;100.00;148707.44;5093020;28;20027;-67
2023/04/09 05:32:00;;;;;;;95.47;29.73;;;;;;;5.06;100.00;148725.44;5089910;28;20085;-67
2023/04/09 05:34:25;;;;;;;108.23;32.83;;;;;;;5.12;100.00;148740.94;5079107;28;20039;-67
2023/04/09 05:36:51;;;;;;;91.43;28.43;;;;;;;5.16;100.00;148751.25;5081626;28;20058;-66
2023/04/09 05:39:17;;;;;;;117.17;33.63;;;;;;;5.23;100.00;148769.31;5085062;28;20052;-67
2023/04/09 05:41:43;;;;;;;79.07;21.50;;;;;;;5.20;100.00;148761.53;5073375;28;20025;-67
2023/04/09 05:44:12;;;;;;;105.03;32.90;;;;;;;5.18;100.00;148756.38;5072743;28;20127;-67
2023/04/09 05:46:37;;;;;;;96.77;30.67;;;;;;;5.26;100.00;148777.03;5073391;28;20029;-67
2023/04/09 05:49:03;;;;;;;97.43;30.73;;;;;;;5.37;100.00;148802.81;5084301;28;20430;-67
2023/04/09 05:51:28;;;;;;;117.50;37.57;;;;;;;5.45;100.00;148823.41;5081900;28;20029;-67
2023/04/09 05:53:54;;;;;;;106.97;31.13;;;;;;;5.45;100.00;148823.41;5072798;28;20048;-67
2023/04/09 05:56:21;;;;;;;112.63;38.07;;;;;;;5.52;100.00;148841.50;5073067;28;20036;-66
2023/04/09 05:58:47;;;;;;;128.90;40.13;;;;;;;5.55;100.00;148849.22;5072954;28;20043;-67
2023/04/09 06:01:12;;;;;;;114.80;38.30;;;;;;;5.55;100.00;148849.22;5091352;28;20544;-67
2023/04/09 06:03:38;;;;;;;107.13;35.07;;;;;;;5.61;100.00;148863.44;5085604;28;20020;-67
2023/04/09 06:06:04;;;;;;;114.30;36.43;;;;;;;5.62;100.00;148866.00;5079194;28;20115;-67
2023/04/09 06:08:30;;;;;;;115.17;36.43;;;;;;;5.62;100.00;148867.28;5080813;28;20028;-67
2023/04/09 06:10:55;;;;;;;86.50;29.30;;;;;;;5.75;100.00;148900.81;5095505;28;20031;-66
2023/04/09 06:13:21;;;;;;;80.50;24.60;;;;;;;5.81;100.00;148915.00;5096315;28;20438;-67
2023/04/09 06:15:47;;;;;;;89.97;31.57;;;;;;;5.94;100.00;148947.31;5087948;28;20423;-67
2023/04/09 06:18:12;;;;;;;91.30;31.27;;;;;;;6.03;100.00;148970.50;5088978;28;20024;-67
2023/04/09 06:20:38;;;;;;;101.43;37.97;;;;;;;6.25;100.00;149027.28;5087771;28;20077;-67
2023/04/09 06:23:04;;;;;;;79.57;29.27;;;;;;;6.31;100.00;149041.50;5094513;28;20024;-67
2023/04/09 06:25:29;;;;;;;73.90;26.23;;;;;;;6.40;100.00;149066.00;5082562;28;20054;-67
2023/04/09 06:27:55;;;;;;;81.27;28.40;;;;;;;6.67;100.00;149134.44;5096553;28;20040;-69
2023/04/09 06:30:21;;;;;;;76.17;27.90;;;;;;;7.10;100.00;149241.56;5078725;28;20020;-67
2023/04/09 06:32:47;;;;;;;66.93;27.20;;;;;;;7.53;100.00;149352.66;5077314;28;20021;-68
2023/04/09 06:35:13;;;;;;;73.20;30.40;;;;;;;8.10;100.00;149497.34;5094825;28;20028;-67
2023/04/09 06:37:39;;;;;;;64.17;24.73;;;;;;;8.46;100.00;149587.91;5094429;28;20050;-68
2023/04/09 06:40:06;;;;;;;46.30;19.47;;;;;;;8.82;100.00;149681.00;5082898;28;20033;-68
2023/04/09 06:42:31;;;;;;;45.07;19.20;;;;;;;9.24;100.00;149785.81;5078605;28;20025;-68
2023/04/09 06:44:57;;;;;;;47.77;22.20;;;;;;;9.51;100.00;149854.38;5084846;28;20410;-67
2023/04/09 06:47:22;;;;;;;49.23;25.03;;;;;;;10.36;100.00;150071.91;5096596;28;20472;-67
2023/04/09 06:49:48;;;;;;;41.40;18.90;;;;;;;10.84;100.00;150193.66;5096547;28;20585;-67
2023/04/09 06:52:13;;;;;;;44.43;21.27;;;;;;;10.64;100.00;150141.81;5096289;28;20051;-67
2023/04/09 06:54:39;;;;;;;43.93;20.07;;;;;;;10.93;100.00;150217.00;5096464;28;20039;-67
2023/04/09 06:57:06;;;;;;;41.00;19.83;;;;;;;11.13;100.00;150268.78;5088179;28;20035;-68
2023/04/09 06:59:32;;;;;;;41.03;19.67;;;;;;;11.83;100.00;150445.13;5095241;28;20053;-67
2023/04/09 07:01:58;;;;;;;39.47;19.37;;;;;;;12.27;100.00;150559.28;5092663;28;20012;-68
2023/04/09 07:04:24;;;;;;;40.20;19.97;;;;;;;11.57;100.00;150380.25;5083173;28;20023;-67
2023/04/09 07:06:51;;;;;;;36.83;18.97;;;;;;;12.12;100.00;150520.38;5096303;28;20487;-68
2023/04/09 07:09:17;;;;;;;34.67;16.93;;;;;;;12.62;100.00;150647.50;5095415;28;20016;-68
2023/04/09 07:11:43;;;;;;;30.90;14.80;;;;;;;12.08;100.00;150509.97;5095992;28;20129;-67
2023/04/09 07:14:08;;;;;;;34.73;16.80;;;;;;;12.32;100.00;150570.94;5095490;28;20039;-68
2023/04/09 07:16:34;;;;;;;29.60;13.20;;;;;;;12.24;100.00;150550.22;5075872;28;20509;-68
2023/04/09 07:18:59;;;;;;;23.03;11.60;;;;;;;11.96;100.00;150478.84;5076314;28;20024;-67
2023/04/09 07:21:27;;;;;;;28.17;14.10;;;;;;;11.84;100.00;150447.72;5083801;28;20481;-67
2023/04/09 07:23:52;;;;;;;36.20;17.83;;;;;;;12.48;100.00;150612.47;5095809;28;20028;-67
2023/04/09 07:26:18;;;;;;;32.20;16.77;;;;;;;12.99;100.00;150740.94;5080202;28;20104;-67
2023/04/09 07:28:44;;;;;;;31.83;14.40;;;;;;;12.32;100.00;150570.94;5094133;28;20051;-67
2023/04/09 07:31:10;;;;;;;28.87;13.07;;;;;;;12.27;100.00;150557.97;5090963;28;20486;-68
2023/04/09 07:33:36;;;;;;;34.50;18.10;;;;;;;12.41;100.00;150594.28;5095343;28;20472;-68
2023/04/09 07:36:01;;;;;;;29.23;12.20;;;;;;;12.79;100.00;150690.28;5095719;28;20027;-67
2023/04/09 07:38:29;;;;;;;30.23;15.50;;;;;;;13.58;100.00;150892.88;5095340;28;20563;-68
2023/04/09 07:40:54;;;;;;;32.30;16.13;;;;;;;13.09;100.00;150768.19;5095047;28;20476;-67
2023/04/09 07:43:20;;;;;;;28.60;14.37;;;;;;;13.17;100.00;150787.63;5095039;28;20036;-67
2023/04/09 07:45:48;;;;;;;32.13;15.83;;;;;;;13.10;100.00;150769.47;5095495;28;20069;-67
2023/04/09 07:48:13;;;;;;;30.93;16.40;;;;;;;13.16;100.00;150786.34;5084891;28;20040;-69
2023/04/09 07:50:39;;;;;;;34.10;18.17;;;;;;;13.66;100.00;150912.31;5087997;28;20147;-69
2023/04/09 07:53:04;;;;;;;32.80;17.50;;;;;;;13.76;100.00;150938.28;5079099;28;20031;-68
2023/04/09 07:55:30;;;;;;;32.00;17.03;;;;;;;14.32;100.00;151081.19;5077096;28;20021;-68
2023/04/09 07:57:55;;;;;;;27.47;13.33;;;;;;;13.94;100.00;150985.06;5095204;28;20031;-68
2023/04/09 08:00:21;;;;;;;28.13;13.90;;;;;;;13.68;100.00;150917.50;5094771;28;20070;-67
2023/04/09 08:02:46;;;;;;;32.80;16.53;;;;;;;13.78;100.00;150943.47;5095085;28;20024;-68
2023/04/09 08:05:12;;;;;;;33.93;17.33;;;;;;;14.23;100.00;151057.78;5092960;28;20065;-67
2023/04/09 08:07:38;;;;;;;31.63;16.33;;;;;;;14.12;100.00;151030.50;5076725;28;20024;-68
2023/04/09 08:10:05;;;;;;;34.33;16.27;;;;;;;13.99;100.00;150998.03;5094647;28;20039;-68
2023/04/09 08:12:30;;;;;;;31.97;17.20;;;;;;;14.40;100.00;151101.94;5094917;28;20468;-68
2023/04/09 08:14:56;;;;;;;32.97;16.00;;;;;;;13.75;100.00;150937.00;5094393;28;20039;-68
2023/04/09 08:17:22;;;;;;;30.77;16.63;;;;;;;14.01;100.00;151001.94;5094246;28;20027;-68
2023/04/09 08:19:48;;;;;;;35.17;19.23;;;;;;;15.15;100.00;151293.09;5074103;28;20029;-68
2023/04/09 08:22:14;;;;;;;29.15;15.93;;;;;;;15.37;100.00;151348.97;5074768;28;20456;-68
2023/04/09 08:24:42;;;;;;;32.47;17.48;;;;;;;15.72;100.00;151440.06;5094266;28;20052;-68
2023/04/09 08:27:07;;;;;;;30.23;15.80;;;;;;;15.04;100.00;151265.81;5085817;28;20501;-67
2023/04/09 08:29:33;;;;;;;36.08;18.67;;;;;;;15.23;100.00;151315.19;5073749;28;20067;-67
2023/04/09 08:31:59;;;;;;;31.55;17.20;;;;;;;15.55;100.00;147629.88;5074254;28;20059;-67
2023/04/09 08:34:24;;;;;;;26.33;13.75;;;;;;;15.72;100.00;137085.72;5073967;28;20028;-68
2023/04/09 08:36:50;;;;;;;33.00;17.05;;;;;;;15.47;100.00;126815.28;5083778;28;20085;-67
2023/04/09 08:39:18;;;;;;;33.33;18.17;;;;;;;14.88;100.00;119226.44;5089463;28;20160;-68
2023/04/09 08:41:45;;;;;;;31.25;17.25;;;;;;;15.34;100.00;125088.25;5094149;28;20076;-68
2023/04/09 08:44:10;;;;;;;26.75;13.88;;;;;;;15.86;100.00;109595.06;5081861;28;20044;-68
2023/04/09 08:46:36;;;;;;;32.45;18.33;;;;;;;16.20;100.00;91757.50;5073782;28;20035;-68
2023/04/09 08:49:02;;;;;;;29.13;16.52;;;;;;;16.11;100.00;65234.41;5073427;28;20033;-67
2023/04/09 08:51:27;;;;;;;28.33;13.10;;;;;;;15.47;100.00;47843.56;5092400;28;20035;-68
2023/04/09 08:54:00;;;;;;;30.75;17.70;;;;;;;15.81;100.00;62863.44;5092756;28;20042;-67
2023/04/09 08:56:26;;;;;;;31.75;18.80;;;;;;;16.49;100.00;58594.38;5087425;28;20035;-68
2023/04/09 08:58:52;;;;;;;30.83;16.92;;;;;;;16.63;100.00;46277.25;5094008;28;20070;-68
2023/04/09 09:01:22;;;;;;;30.02;16.80;;;;;;;16.50;100.00;15475.97;5091721;28;20107;-69
2023/04/09 09:03:59;;;;;;;25.67;14.10;;;;;;;16.47;100.00;-19594.34;5082823;28;20055;-67
2023/04/09 09:06:31;;;;;;;25.70;14.13;;;;;;;16.08;100.00;-19584.28;5089419;28;20073;-68
2023/04/09 09:09:07;;;;;;;21.23;10.23;;;;;;;15.84;100.00;-19578.16;5077843;28;20548;-68
2023/04/09 09:11:35;;;;;;;29.92;17.48;;;;;;;16.11;100.00;-19585.06;5089866;28;20072;-68
2023/04/09 09:14:18;;;;;;;27.05;16.27;;;;;;;16.77;100.00;-19602.06;5088968;28;20028;-68
2023/04/09 09:17:02;;;;;;;25.67;15.20;;;;;;;15.94;100.00;-19580.63;5084653;28;20032;-68
2023/04/09 09:19:32;;;;;;;27.50;15.45;;;;;;;15.95;100.00;-19580.88;5086022;28;20569;-70
2023/04/09 09:22:07;;;;;;;29.10;15.43;;;;;;;16.65;100.00;-19598.94;5088194;28;20107;-71
2023/04/09 09:24:53;;;;;;;30.10;17.65;;;;;;;16.88;100.00;-19604.94;5073303;28;20074;-71
2023/04/09 09:27:42;;;;;;;29.58;17.67;;;;;;;16.93;100.00;-19606.25;5091554;28;20040;-70
2023/04/09 09:30:19;;;;;;;28.25;16.45;;;;;;;17.71;100.00;-19626.22;5092714;28;20047;-71
2023/04/09 09:32:45;;;;;;;29.75;18.60;;;;;;;17.14;100.00;-19611.47;5076626;28;20103;-71
2023/04/09 09:35:10;;;;;;;28.38;18.42;;;;;;;17.07;100.00;-19609.63;5083386;28;20127;-71
2023/04/09 09:37:37;;;;;;;24.65;13.45;;;;;;;17.55;100.00;-19622.16;5091510;28;20024;-71
2023/04/09 09:40:03;;;;;;;28.33;17.17;;;;;;;17.24;100.00;-19614.06;5083234;28;20107;-71
2023/04/09 09:42:29;;;;;;;27.98;18.00;;;;;;;16.95;100.00;-19606.63;5078986;28;20398;-71
2023/04/09 09:44:55;;;;;;;26.60;17.02;;;;;;;17.09;100.00;-19610.16;5084848;28;20071;-71
2023/04/09 09:47:22;;;;;;;22.25;14.77;;;;;;;16.95;100.00;-19606.63;5085684;28;20024;-71
2023/04/09 09:49:51;;;;;;;25.08;15.18;;;;;;;17.16;100.00;-19612.00;5083839;28;20049;-71
2023/04/09 09:52:27;;;;;;;26.85;16.88;;;;;;;17.17;100.00;-19612.25;5098229;28;20028;-71
2023/04/09 09:54:54;;;;;;;24.00;15.98;;;;;;;16.89;100.00;-19605.06;5093670;28;20023;-71
2023/04/09 09:57:23;;;;;;;23.58;15.68;;;;;;;17.69;100.00;-19625.56;5092789;28;20028;-69
2023/04/09 10:00:02;;;;;;;20.35;13.85;;;;;;;16.82;100.00;-19603.25;5093283;28;20031;-69
2023/04/09 10:02:36;;;;;;;23.40;15.55;;;;;;;17.37;100.00;-19617.47;5088499;28;20165;-69
2023/04/09 10:05:04;;;;;;;23.70;14.93;;;;;;;17.72;100.00;-19626.34;5074565;28;20109;-68
2023/04/09 10:07:30;;;;;;;23.55;15.23;;;;;;;17.51;100.00;-19621.13;5073042;28;20024;-68
2023/04/09 10:09:57;;;;;;;20.60;14.07;;;;;;;17.68;100.00;-19625.28;5088620;28;20031;-69
2023/04/09 10:12:24;;;;;;;21.17;14.13;;;;;;;18.02;100.00;-19634.03;5092985;28;20032;-69
2023/04/09 10:14:51;;;;;;;22.90;15.68;;;;;;;16.94;100.00;-19606.38;5077765;28;20469;-69
2023/04/09 10:17:18;;;;;;;23.70;16.23;;;;;;;16.55;100.00;-19596.31;5092785;28;20077;-68
2023/04/09 10:19:53;;;;;;;20.60;14.75;;;;;;;16.96;100.00;-19607.03;5092949;28;20020;-69
2023/04/09 10:22:26;;;;;;;21.63;13.82;;;;;;;17.34;100.00;-19616.69;5082976;28;20040;-68
2023/04/09 10:24:51;;;;;;;22.52;13.80;;;;;;;16.89;100.00;-19605.06;5087113;28;20063;-68
2023/04/09 10:27:17;;;;;;;23.38;15.45;;;;;;;16.64;100.00;-19598.66;5092718;28;20059;-68
2023/04/09 10:29:48;;;;;;;24.52;16.00;;;;;;;16.59;100.00;-19597.34;5091166;28;20031;-68
2023/04/09 10:32:22;;;;;;;24.52;16.15;;;;;;;16.68;100.00;-19599.72;5092308;28;20042;-68
2023/04/09 10:34:49;;;;;;;25.58;15.35;;;;;;;16.93;100.00;-19606.25;5086605;28;20032;-68
2023/04/09 10:37:25;;;;;;;23.35;14.05;;;;;;;16.21;100.00;-19587.69;5079862;28;20024;-68
2023/04/09 10:39:51;;;;;;;20.45;13.63;;;;;;;16.86;100.00;-19604.28;5076606;28;20495;-69
2023/04/09 10:42:44;;;;;;;17.70;12.02;;;;;;;16.71;100.00;-19600.50;5073908;28;20025;-68
2023/04/09 10:45:14;;;;;;;19.50;12.60;;;;;;;17.20;100.00;-19613.03;5091465;28;20131;-67
2023/04/09 10:47:41;;;;;;;17.77;11.35;;;;;;;16.89;100.00;-19605.06;5072877;28;20103;-67
2023/04/09 10:50:26;;;;;;;20.92;13.82;;;;;;;16.47;100.00;-19594.22;5088574;28;20079;-67
2023/04/09 10:52:58;;;;;;;18.55;12.25;;;;;;;15.96;100.00;-19581.16;5076303;28;20048;-66
2023/04/09 10:55:31;;;;;;;;;;;;;;;15.64;100.00;-19573.06;5081973;28;20073;-67
2023/04/09 10:57:57;;;;;;;21.85;13.75;;;;;;;14.73;100.00;-19549.50;5088683;28;21706;-66
2023/04/09 11:00:23;;;;;;;13.25;7.47;;;;;;;14.13;100.00;-19534.03;5086821;28;20020;-67
2023/04/09 11:03:12;;;;;;;18.55;11.05;;;;;;;13.57;100.00;-19519.59;5096104;28;20020;-67
2023/04/09 11:05:39;;;;;;;22.88;12.80;;;;;;;13.41;100.00;-19515.69;5095654;28;20110;-68
2023/04/09 11:08:08;;;;;;;21.57;12.43;;;;;;;13.22;100.00;-19510.56;5096062;28;20035;-67